Time;durP1;ratioP1;P1;durP2;ratioP2;P2;SDS_P1;SDS_P2;PMS_P1;PMS_P2;Temp;Humidity;BMP_temperature;BMP_pressure;BME280_temperature;BME280_humidity;BME280_pressure;Samples;Min_cycle;Max_cycle;Signal;HPM_P1;HPM_P2
2023/12/04 00:00:33;;;;;;;19.73;8.93;;;-2.20;99.90;;;;;;5081876;28;20070;-88
2023/12/04 00:02:58;;;;;;;18.53;8.70;;;-2.20;99.90;;;;;;5093284;28;20077;-86
2023/12/04 00:05:24;;;;;;;20.00;9.17;;;-2.20;99.90;;;;;;5081221;28;20016;-88
2023/12/04 00:07:49;;;;;;;19.87;9.67;;;-2.20;99.90;;;;;;5087723;28;20020;-88
2023/12/04 00:10:15;;;;;;;18.97;9.53;;;-2.20;99.90;;;;;;5074955;28;20028;-85
2023/12/04 00:12:41;;;;;;;17.03;8.83;;;-2.20;99.90;;;;;;5091965;28;20039;-87
2023/12/04 00:15:07;;;;;;;21.90;9.57;;;-2.20;99.90;;;;;;5074855;28;20354;-87
2023/12/04 00:17:33;;;;;;;18.00;8.57;;;-2.40;99.90;;;;;;5094470;28;20036;-89
2023/12/04 00:19:58;;;;;;;16.87;8.03;;;-2.30;99.90;;;;;;5095869;28;20403;-90
2023/12/04 00:22:24;;;;;;;17.40;8.20;;;-2.30;99.90;;;;;;5095249;28;20039;-91
2023/12/04 00:24:50;;;;;;;21.10;9.47;;;-2.30;99.90;;;;;;5078686;28;20032;-85
2023/12/04 00:27:15;;;;;;;23.33;9.93;;;-2.40;99.90;;;;;;5090901;28;20055;-84
2023/12/04 00:29:41;;;;;;;18.73;8.60;;;-2.40;99.90;;;;;;5083304;28;20059;-86
2023/12/04 00:32:06;;;;;;;18.60;9.13;;;-2.40;99.90;;;;;;5083533;28;20031;-86
2023/12/04 00:34:32;;;;;;;19.37;8.70;;;-2.30;99.90;;;;;;5090469;28;20088;-84
2023/12/04 00:36:57;;;;;;;17.03;8.47;;;-2.30;99.90;;;;;;5078413;28;20024;-84
2023/12/04 00:39:23;;;;;;;19.20;9.00;;;-2.40;99.90;;;;;;5090170;28;20213;-86
2023/12/04 00:41:49;;;;;;;19.33;8.70;;;-2.30;99.90;;;;;;5084083;28;20055;-85
2023/12/04 00:44:14;;;;;;;16.80;8.53;;;-2.30;99.90;;;;;;5083092;28;20036;-86
2023/12/04 00:46:40;;;;;;;18.30;8.73;;;-2.20;99.90;;;;;;5090972;28;20491;-85
2023/12/04 00:49:05;;;;;;;18.47;8.13;;;-2.20;99.90;;;;;;5094455;28;20012;-86
2023/12/04 00:51:37;;;;;;;16.47;7.97;;;-2.30;99.90;;;;;;5089437;28;20031;-87
2023/12/04 00:54:03;;;;;;;20.92;8.73;;;-2.30;99.90;;;;;;5086059;28;20020;-87
2023/12/04 00:56:29;;;;;;;15.73;7.93;;;-2.20;99.90;;;;;;5080303;28;20460;-87
2023/12/04 00:58:54;;;;;;;16.10;7.87;;;-2.20;99.90;;;;;;5091314;28;20031;-93
2023/12/04 01:01:20;;;;;;;18.47;8.30;;;-2.20;99.90;;;;;;5074158;28;20033;-90
2023/12/04 01:03:45;;;;;;;17.83;9.17;;;-2.20;99.90;;;;;;5082802;28;20058;-89
2023/12/04 01:06:23;;;;;;;16.23;7.73;;;-2.20;99.90;;;;;;5082051;28;20453;-87
2023/12/04 01:08:49;;;;;;;19.30;9.00;;;-2.20;99.90;;;;;;5091009;28;20024;-86
2023/12/04 01:11:16;;;;;;;19.67;8.30;;;-2.20;99.90;;;;;;5079354;28;20085;-88
2023/12/04 01:13:42;;;;;;;18.63;8.30;;;-2.10;99.90;;;;;;5094212;28;20024;-88
2023/12/04 01:16:09;;;;;;;20.73;9.30;;;-2.10;99.90;;;;;;5093072;28;20376;-82
2023/12/04 01:18:34;;;;;;;20.33;8.70;;;-2.00;99.90;;;;;;5095037;28;20012;-83
2023/12/04 01:21:00;;;;;;;16.73;7.73;;;-2.00;99.90;;;;;;5094600;28;20133;-83
2023/12/04 01:23:25;;;;;;;17.80;8.17;;;-2.00;99.90;;;;;;5094631;28;20475;-84
2023/12/04 01:25:51;;;;;;;18.37;8.13;;;-2.00;99.90;;;;;;5094287;28;20359;-83
2023/12/04 01:28:17;;;;;;;17.83;8.00;;;-2.10;99.90;;;;;;5076111;28;20024;-82
2023/12/04 01:30:42;;;;;;;18.00;8.37;;;-2.10;99.90;;;;;;5075668;28;20024;-83
2023/12/04 01:33:08;;;;;;;20.37;8.73;;;-2.10;99.90;;;;;;5075218;28;20099;-84
2023/12/04 01:35:34;;;;;;;16.43;8.77;;;-2.10;99.90;;;;;;5074121;28;20059;-84
2023/12/04 01:38:00;;;;;;;20.80;9.17;;;-2.10;99.90;;;;;;5074449;28;20024;-84
2023/12/04 01:40:26;;;;;;;16.53;8.07;;;-2.20;99.90;;;;;;5073667;28;20052;-85
2023/12/04 01:42:52;;;;;;;16.57;7.67;;;-2.20;99.90;;;;;;5075440;28;20060;-84
2023/12/04 01:45:17;;;;;;;15.93;7.77;;;-2.20;99.90;;;;;;5073762;28;20028;-84
2023/12/04 01:47:43;;;;;;;21.63;9.10;;;-2.20;99.90;;;;;;5075379;28;20080;-84
2023/12/04 01:50:09;;;;;;;17.63;7.90;;;-2.30;99.90;;;;;;5074968;28;20021;-84
2023/12/04 01:52:36;;;;;;;19.60;8.63;;;-2.30;99.90;;;;;;5075254;28;20031;-84
2023/12/04 01:55:03;;;;;;;14.70;8.00;;;-2.30;99.90;;;;;;5074253;28;20058;-83
2023/12/04 01:57:28;;;;;;;22.00;9.80;;;-2.30;99.90;;;;;;5073694;28;20020;-84
2023/12/04 01:59:54;;;;;;;19.63;9.13;;;-2.30;99.90;;;;;;5073972;28;20023;-84
2023/12/04 02:02:21;;;;;;;19.60;8.60;;;-2.40;99.90;;;;;;5073408;28;20024;-82
2023/12/04 02:04:46;;;;;;;22.43;8.87;;;-2.30;99.90;;;;;;5073708;28;20097;-82
2023/12/04 02:07:12;;;;;;;18.33;8.40;;;-2.40;99.90;;;;;;5073494;28;20020;-82
2023/12/04 02:09:38;;;;;;;16.57;8.20;;;-2.30;99.90;;;;;;5074687;28;20396;-81
2023/12/04 02:12:04;;;;;;;17.33;7.57;;;-2.30;99.90;;;;;;5073773;28;20032;-83
2023/12/04 02:14:29;;;;;;;23.17;9.03;;;-2.30;99.90;;;;;;5074210;28;20024;-82
2023/12/04 02:16:57;;;;;;;18.90;8.27;;;-2.40;99.90;;;;;;5074054;28;20031;-82
2023/12/04 02:19:23;;;;;;;17.73;8.63;;;-2.40;99.90;;;;;;5074255;28;20085;-82
2023/12/04 02:21:49;;;;;;;17.70;8.40;;;-2.40;99.90;;;;;;5073527;28;20461;-82
2023/12/04 02:24:15;;;;;;;16.00;7.73;;;-2.50;99.90;;;;;;5073077;28;20035;-83
2023/12/04 02:26:52;;;;;;;20.80;8.13;;;-2.50;99.90;;;;;;5073212;28;20024;-82
2023/12/04 02:29:37;;;;;;;14.07;7.00;;;-2.50;99.90;;;;;;5073009;28;20027;-81
2023/12/04 02:32:05;;;;;;;19.27;8.40;;;-2.40;99.90;;;;;;5073242;28;20024;-83
2023/12/04 02:34:33;;;;;;;18.60;7.70;;;-2.40;99.90;;;;;;5074158;28;20067;-82
2023/12/04 02:37:01;;;;;;;16.40;7.83;;;-2.40;99.90;;;;;;5073361;28;20364;-82
2023/12/04 02:39:27;;;;;;;14.90;7.90;;;-2.40;99.90;;;;;;5072757;28;20044;-83
2023/12/04 02:41:52;;;;;;;15.60;7.80;;;-2.40;99.90;;;;;;5073545;28;20028;-82
2023/12/04 02:44:19;;;;;;;16.67;7.60;;;-2.40;99.90;;;;;;5073006;28;20572;-84
2023/12/04 02:46:45;;;;;;;16.63;7.97;;;-2.40;99.90;;;;;;5073223;28;20052;-83
2023/12/04 02:49:10;;;;;;;16.53;8.20;;;-2.40;99.90;;;;;;5072787;28;20039;-84
2023/12/04 02:51:36;;;;;;;16.20;7.33;;;-2.40;99.90;;;;;;5074091;28;20039;-82
2023/12/04 02:54:01;;;;;;;18.87;8.53;;;-2.50;99.90;;;;;;5072960;28;20017;-82
2023/12/04 02:56:27;;;;;;;15.67;8.17;;;-2.50;99.90;;;;;;5072689;28;20016;-83
2023/12/04 02:58:53;;;;;;;15.03;7.53;;;-2.50;99.90;;;;;;5073459;28;20044;-82
2023/12/04 03:01:18;;;;;;;18.07;8.27;;;-2.40;99.90;;;;;;5072496;28;20047;-83
2023/12/04 03:03:44;;;;;;;17.67;7.87;;;-2.40;99.90;;;;;;5072958;28;20021;-83
2023/12/04 03:06:10;;;;;;;17.27;7.90;;;-2.40;99.90;;;;;;5074045;28;20024;-82
2023/12/04 03:08:35;;;;;;;17.07;8.23;;;-2.40;99.90;;;;;;5072962;28;20115;-82
2023/12/04 03:11:03;;;;;;;15.87;7.43;;;-2.50;99.90;;;;;;5073053;28;20052;-82
2023/12/04 03:13:29;;;;;;;16.67;7.60;;;-2.50;99.90;;;;;;5072666;28;20059;-81
2023/12/04 03:15:54;;;;;;;18.77;7.07;;;-2.40;99.90;;;;;;5073799;28;20020;-82
2023/12/04 03:18:20;;;;;;;16.03;7.20;;;-2.40;99.90;;;;;;5072149;28;20436;-82
2023/12/04 03:20:45;;;;;;;16.50;8.33;;;-2.40;99.90;;;;;;5073933;28;20059;-81
2023/12/04 03:23:11;;;;;;;13.50;7.07;;;-2.50;99.90;;;;;;5073492;28;20063;-92
2023/12/04 03:25:37;;;;;;;17.40;8.03;;;-2.50;99.90;;;;;;5073839;28;20089;-83
2023/12/04 03:28:02;;;;;;;15.40;7.27;;;-2.50;99.90;;;;;;5077747;28;20026;-82
2023/12/04 03:30:28;;;;;;;13.30;7.43;;;-2.40;99.90;;;;;;5076358;28;20376;-82
2023/12/04 03:32:54;;;;;;;16.17;7.13;;;-2.30;99.90;;;;;;5077876;28;20021;-82
2023/12/04 03:35:19;;;;;;;16.50;7.60;;;-2.40;99.90;;;;;;5076211;28;20029;-82
2023/12/04 03:37:45;;;;;;;19.30;8.13;;;-2.40;99.90;;;;;;5077123;28;20032;-83
2023/12/04 03:40:11;;;;;;;16.30;7.00;;;-2.30;99.90;;;;;;5076452;28;20044;-83
2023/12/04 03:42:36;;;;;;;13.53;6.13;;;-2.30;99.90;;;;;;5075945;28;20062;-83
2023/12/04 03:45:02;;;;;;;18.90;8.00;;;-2.30;99.90;;;;;;5076347;28;20109;-83
2023/12/04 03:47:28;;;;;;;15.70;7.33;;;-2.30;99.90;;;;;;5076531;28;20025;-83
2023/12/04 03:49:53;;;;;;;18.27;7.77;;;-2.30;99.90;;;;;;5076389;28;20075;-83
2023/12/04 03:52:19;;;;;;;17.37;7.80;;;-2.50;99.90;;;;;;5076001;28;20039;-83
2023/12/04 03:54:45;;;;;;;13.93;7.30;;;-2.60;99.90;;;;;;5077223;28;20025;-83
2023/12/04 03:57:10;;;;;;;18.33;7.97;;;-2.60;99.90;;;;;;5076150;28;20023;-83
2023/12/04 03:59:36;;;;;;;18.07;8.07;;;-2.50;99.90;;;;;;5076962;28;20445;-83
2023/12/04 04:02:02;;;;;;;15.77;7.60;;;-2.60;99.90;;;;;;5077086;28;20064;-83
2023/12/04 04:04:27;;;;;;;17.50;7.07;;;-2.50;99.90;;;;;;5075794;28;20021;-83
2023/12/04 04:06:53;;;;;;;15.20;7.57;;;-2.50;99.90;;;;;;5077497;28;20074;-83
2023/12/04 04:09:19;;;;;;;16.57;7.30;;;-2.60;99.90;;;;;;5075946;28;20016;-83
2023/12/04 04:11:45;;;;;;;15.77;7.67;;;-2.50;99.90;;;;;;5077069;28;20064;-80
2023/12/04 04:14:11;;;;;;;19.37;8.37;;;-2.50;99.90;;;;;;5076066;28;20027;-80
2023/12/04 04:16:36;;;;;;;20.77;8.83;;;-2.40;99.90;;;;;;5075441;28;20016;-80
2023/12/04 04:19:02;;;;;;;16.80;8.03;;;-2.40;99.90;;;;;;5075674;28;20025;-80
2023/12/04 04:21:28;;;;;;;21.07;8.03;;;-2.50;99.90;;;;;;5076252;28;20024;-80
2023/12/04 04:23:53;;;;;;;17.87;7.97;;;-2.40;99.90;;;;;;5075763;28;20021;-81
2023/12/04 04:26:19;;;;;;;15.87;7.67;;;-2.40;99.90;;;;;;5075182;28;20025;-80
2023/12/04 04:28:45;;;;;;;16.90;7.70;;;-2.40;99.90;;;;;;5075257;28;20016;-80
2023/12/04 04:31:10;;;;;;;16.23;7.57;;;-2.40;99.90;;;;;;5075392;28;20021;-82
2023/12/04 04:33:36;;;;;;;16.97;7.43;;;-2.40;99.90;;;;;;5075370;28;20067;-82
2023/12/04 04:36:02;;;;;;;19.47;7.97;;;-2.30;99.90;;;;;;5076724;28;20017;-83
2023/12/04 04:38:28;;;;;;;17.93;8.57;;;-2.30;99.90;;;;;;5073675;28;20039;-81
2023/12/04 04:40:53;;;;;;;16.90;7.57;;;-2.30;99.90;;;;;;5076392;28;20021;-82
2023/12/04 04:43:19;;;;;;;17.03;7.63;;;-2.30;99.90;;;;;;5074876;28;20443;-82
2023/12/04 04:45:45;;;;;;;16.63;8.03;;;-2.40;99.90;;;;;;5075436;28;20024;-81
2023/12/04 04:48:11;;;;;;;15.77;8.03;;;-2.40;99.90;;;;;;5076223;28;20464;-82
2023/12/04 04:50:36;;;;;;;17.83;7.67;;;-2.40;99.90;;;;;;5074418;28;20024;-81
2023/12/04 04:53:02;;;;;;;15.40;7.53;;;-2.50;99.90;;;;;;5075984;28;20086;-81
2023/12/04 04:55:27;;;;;;;19.33;8.97;;;-2.40;99.90;;;;;;5074545;28;20365;-82
2023/12/04 04:57:53;;;;;;;16.23;7.57;;;-2.40;99.90;;;;;;5074957;28;20445;-82
2023/12/04 05:00:19;;;;;;;17.63;7.83;;;-2.40;99.90;;;;;;5074787;28;20105;-83
2023/12/04 05:02:45;;;;;;;15.80;7.83;;;-2.40;99.90;;;;;;5075374;28;20097;-82
2023/12/04 05:05:11;;;;;;;19.03;8.23;;;-2.30;99.90;;;;;;5075068;28;20465;-81
2023/12/04 05:07:37;;;;;;;16.93;8.33;;;-2.40;99.90;;;;;;5074509;28;20115;-81
2023/12/04 05:10:03;;;;;;;16.67;7.73;;;-2.40;99.90;;;;;;5074823;28;20021;-82
2023/12/04 05:12:29;;;;;;;16.90;8.10;;;-2.40;99.90;;;;;;5074359;28;20127;-82
2023/12/04 05:14:55;;;;;;;20.07;8.73;;;-2.40;99.90;;;;;;5074490;28;20059;-82
2023/12/04 05:17:20;;;;;;;19.03;8.33;;;-2.40;99.90;;;;;;5075028;28;20029;-82
2023/12/04 05:19:46;;;;;;;19.63;9.23;;;-2.40;99.90;;;;;;5074629;28;20130;-81
2023/12/04 05:22:11;;;;;;;19.03;7.77;;;-2.40;99.90;;;;;;5074483;28;20052;-81
2023/12/04 05:24:37;;;;;;;20.30;8.77;;;-2.40;99.90;;;;;;5075215;28;20032;-81
2023/12/04 05:27:03;;;;;;;17.57;8.70;;;-2.40;99.90;;;;;;5075792;28;20357;-81
2023/12/04 05:29:28;;;;;;;18.30;9.40;;;-2.40;99.90;;;;;;5074333;28;20066;-82
2023/12/04 05:31:54;;;;;;;18.60;8.77;;;-2.30;99.90;;;;;;5075819;28;20024;-82
2023/12/04 05:34:19;;;;;;;19.00;8.50;;;-2.20;99.90;;;;;;5075107;28;20030;-86
2023/12/04 05:36:45;;;;;;;21.40;9.23;;;-2.20;99.90;;;;;;5074485;28;20043;-81
2023/12/04 05:39:11;;;;;;;19.60;8.83;;;-2.20;99.90;;;;;;5073946;28;20068;-82
2023/12/04 05:41:36;;;;;;;14.90;7.60;;;-2.10;99.90;;;;;;5073789;28;20028;-80
2023/12/04 05:44:02;;;;;;;15.50;7.83;;;-2.20;99.90;;;;;;5075342;28;20056;-81
2023/12/04 05:46:28;;;;;;;19.27;8.07;;;-2.20;99.90;;;;;;5073789;28;20476;-82
2023/12/04 05:48:53;;;;;;;20.23;9.47;;;-2.10;99.90;;;;;;5074054;28;20111;-82
2023/12/04 05:51:19;;;;;;;17.83;8.90;;;-2.10;99.90;;;;;;5075211;28;20039;-81
2023/12/04 05:53:44;;;;;;;19.97;9.00;;;-2.10;99.90;;;;;;5073665;28;20024;-81
2023/12/04 05:56:10;;;;;;;16.73;8.20;;;-2.20;99.90;;;;;;5075165;28;20025;-81
2023/12/04 05:58:36;;;;;;;19.40;8.53;;;-2.10;99.90;;;;;;5074834;28;20017;-81
2023/12/04 06:01:02;;;;;;;18.63;8.53;;;-2.10;99.90;;;;;;5074731;28;20042;-81
2023/12/04 06:03:28;;;;;;;20.90;9.03;;;-2.20;99.90;;;;;;5073204;28;20482;-82
2023/12/04 06:05:53;;;;;;;19.57;8.53;;;-2.10;99.90;;;;;;5073852;28;20017;-82
2023/12/04 06:08:19;;;;;;;17.70;8.33;;;-2.00;99.90;;;;;;5073522;28;20110;-82
2023/12/04 06:10:46;;;;;;;16.87;8.20;;;-2.00;99.90;;;;;;5084281;28;20415;-82
2023/12/04 06:13:11;;;;;;;20.17;8.40;;;-2.00;99.90;;;;;;5094675;28;20020;-81
2023/12/04 06:15:37;;;;;;;20.23;8.77;;;-2.00;99.90;;;;;;5093557;28;20020;-81
2023/12/04 06:18:03;;;;;;;20.60;9.47;;;-2.10;99.90;;;;;;5093788;28;20028;-83
2023/12/04 06:20:28;;;;;;;17.90;8.10;;;-2.10;99.90;;;;;;5093148;28;20418;-82
2023/12/04 06:22:54;;;;;;;20.03;9.07;;;-2.00;99.90;;;;;;5094257;28;20028;-84
2023/12/04 06:25:20;;;;;;;17.93;9.57;;;-2.00;99.90;;;;;;5093808;28;20020;-84
2023/12/04 06:27:46;;;;;;;16.93;8.13;;;-2.10;99.90;;;;;;5093380;28;20020;-83
2023/12/04 06:30:12;;;;;;;18.27;8.33;;;-2.00;99.90;;;;;;5093480;28;20024;-83
2023/12/04 06:32:38;;;;;;;17.67;9.17;;;-2.00;99.90;;;;;;5093366;28;20065;-84
2023/12/04 06:35:04;;;;;;;15.93;7.43;;;-2.10;99.90;;;;;;5094308;28;20048;-84
2023/12/04 06:37:31;;;;;;;17.07;8.03;;;-2.20;99.90;;;;;;5093510;28;20027;-83
2023/12/04 06:40:00;;;;;;;17.57;7.53;;;-2.20;99.90;;;;;;5094674;28;20041;-83
2023/12/04 06:42:26;;;;;;;15.80;8.57;;;-2.10;99.90;;;;;;5092976;28;20028;-83
2023/12/04 06:44:52;;;;;;;17.80;8.63;;;-2.10;99.90;;;;;;5093402;28;20031;-82
2023/12/04 06:47:21;;;;;;;17.07;8.90;;;-2.10;99.90;;;;;;5094366;28;20099;-82
2023/12/04 06:49:47;;;;;;;16.27;8.07;;;-2.10;99.90;;;;;;5093075;28;20027;-83
2023/12/04 06:52:12;;;;;;;18.97;8.47;;;-2.00;99.90;;;;;;5094290;28;20095;-83
2023/12/04 06:54:38;;;;;;;18.57;8.17;;;-2.00;99.90;;;;;;5092976;28;20027;-82
2023/12/04 06:57:04;;;;;;;17.73;8.57;;;-2.10;99.90;;;;;;5094399;28;20099;-84
2023/12/04 06:59:29;;;;;;;16.77;7.80;;;-2.10;99.90;;;;;;5092598;28;20452;-82
2023/12/04 07:01:55;;;;;;;16.33;8.00;;;-2.10;99.90;;;;;;5092670;28;20122;-82
2023/12/04 07:04:21;;;;;;;16.83;8.57;;;-2.20;99.90;;;;;;5093115;28;20368;-82
2023/12/04 07:06:48;;;;;;;15.73;7.87;;;-2.10;99.90;;;;;;5092814;28;20406;-83
2023/12/04 07:09:14;;;;;;;17.97;8.30;;;-2.20;99.90;;;;;;5093129;28;20083;-82
2023/12/04 07:11:39;;;;;;;16.43;8.30;;;-2.10;99.90;;;;;;5092496;28;20484;-83
2023/12/04 07:14:05;;;;;;;17.10;7.87;;;-2.00;99.90;;;;;;5093084;28;20456;-82
2023/12/04 07:16:31;;;;;;;16.30;8.07;;;-1.90;99.90;;;;;;5093848;28;20020;-83
2023/12/04 07:18:56;;;;;;;17.33;7.50;;;-1.90;99.90;;;;;;5093094;28;20418;-82
2023/12/04 07:21:22;;;;;;;14.97;7.60;;;-1.90;99.90;;;;;;5093143;28;20036;-83
2023/12/04 07:23:47;;;;;;;17.00;7.50;;;-1.80;99.90;;;;;;5093620;28;20517;-82
2023/12/04 07:26:13;;;;;;;15.97;7.70;;;-1.80;99.90;;;;;;5092804;28;20020;-82
2023/12/04 07:28:38;;;;;;;14.57;7.07;;;-1.80;99.90;;;;;;5092544;28;20353;-83
2023/12/04 07:31:04;;;;;;;16.70;7.00;;;-1.70;99.90;;;;;;5092654;28;20023;-83
2023/12/04 07:33:30;;;;;;;14.80;7.73;;;-1.80;99.90;;;;;;5092381;28;20081;-83
2023/12/04 07:35:56;;;;;;;17.63;7.87;;;-1.80;99.90;;;;;;5093823;28;20024;-83
2023/12/04 07:38:22;;;;;;;14.90;7.57;;;-1.70;99.90;;;;;;5093737;28;20016;-83
2023/12/04 07:40:47;;;;;;;14.77;6.43;;;-1.70;99.90;;;;;;5093419;28;20046;-83
2023/12/04 07:43:14;;;;;;;16.97;7.47;;;-1.60;99.90;;;;;;5092930;28;20111;-82
2023/12/04 07:45:41;;;;;;;16.50;7.33;;;-1.60;99.90;;;;;;5092552;28;20051;-83
2023/12/04 07:48:06;;;;;;;14.73;6.90;;;-1.60;99.90;;;;;;5093065;28;20016;-82
2023/12/04 07:50:32;;;;;;;14.03;7.40;;;-1.60;99.90;;;;;;5093306;28;20020;-83
2023/12/04 07:52:57;;;;;;;16.00;6.70;;;-1.60;99.90;;;;;;5092791;28;20020;-82
2023/12/04 07:55:23;;;;;;;15.07;7.53;;;-1.50;99.90;;;;;;5092699;28;20028;-82
2023/12/04 07:57:50;;;;;;;15.07;7.87;;;-1.50;99.90;;;;;;5091960;28;20495;-81
2023/12/04 08:00:17;;;;;;;17.97;7.87;;;-1.40;99.90;;;;;;5093650;28;20012;-81
2023/12/04 08:02:44;;;;;;;15.37;7.17;;;-1.40;99.90;;;;;;5092199;28;20024;-81
2023/12/04 08:05:10;;;;;;;14.47;7.07;;;-1.30;99.90;;;;;;5092662;28;20077;-82
2023/12/04 08:07:36;;;;;;;13.37;6.40;;;-1.30;99.90;;;;;;5091942;28;20020;-82
2023/12/04 08:10:01;;;;;;;14.30;7.07;;;-1.30;99.90;;;;;;5092371;28;20035;-82
2023/12/04 08:12:27;;;;;;;13.40;6.33;;;-1.20;99.90;;;;;;5095789;28;20028;-82
2023/12/04 08:14:53;;;;;;;13.43;7.27;;;-1.20;99.90;;;;;;5095825;28;20444;-82
2023/12/04 08:17:18;;;;;;;18.70;8.50;;;-1.20;99.90;;;;;;5096306;28;20044;-83
2023/12/04 08:19:44;;;;;;;16.13;7.70;;;-1.30;99.90;;;;;;5096621;28;20024;-82
2023/12/04 08:22:10;;;;;;;15.63;7.33;;;-1.30;99.90;;;;;;5095990;28;20115;-82
2023/12/04 08:24:35;;;;;;;16.23;7.20;;;-1.20;99.90;;;;;;5096555;28;20020;-84
2023/12/04 08:27:01;;;;;;;13.17;6.80;;;-1.10;99.90;;;;;;5095919;28;20023;-84
2023/12/04 08:29:26;;;;;;;13.17;6.27;;;-1.10;99.90;;;;;;5096767;28;20055;-83
2023/12/04 08:31:52;;;;;;;13.90;6.80;;;-1.10;99.90;;;;;;5095256;28;20046;-83
2023/12/04 08:34:18;;;;;;;15.00;7.17;;;-1.00;99.90;;;;;;5095522;28;20056;-83
2023/12/04 08:36:43;;;;;;;14.23;6.40;;;-1.00;99.90;;;;;;5095413;28;20060;-83
2023/12/04 08:39:09;;;;;;;12.37;6.30;;;-1.00;99.90;;;;;;5095540;28;20036;-83
2023/12/04 08:41:34;;;;;;;18.20;6.40;;;-1.00;99.90;;;;;;5095574;28;20084;-84
2023/12/04 08:44:00;;;;;;;14.73;6.20;;;-1.00;99.90;;;;;;5095815;28;20120;-84
2023/12/04 08:46:26;;;;;;;12.27;6.27;;;-0.90;99.90;;;;;;5096597;28;20452;-84
2023/12/04 08:48:51;;;;;;;12.80;6.47;;;-1.00;99.90;;;;;;5095036;28;20032;-84
2023/12/04 08:51:17;;;;;;;14.77;6.53;;;-0.90;99.90;;;;;;5095562;28;20027;-83
2023/12/04 08:53:43;;;;;;;12.37;5.77;;;-0.90;99.90;;;;;;5094983;28;20464;-83
2023/12/04 08:56:09;;;;;;;13.30;5.83;;;-0.80;99.90;;;;;;5095454;28;20024;-83
2023/12/04 08:58:35;;;;;;;12.70;5.87;;;-0.70;99.90;;;;;;5095041;28;20023;-84
2023/12/04 09:01:01;;;;;;;11.13;5.60;;;-0.70;99.90;;;;;;5095462;28;20020;-83
2023/12/04 09:03:26;;;;;;;13.33;5.83;;;-0.70;99.90;;;;;;5095175;28;20024;-85
2023/12/04 09:05:52;;;;;;;12.17;5.37;;;-0.60;99.90;;;;;;5094832;28;20060;-85
2023/12/04 09:08:18;;;;;;;12.50;6.03;;;-0.60;99.90;;;;;;5095375;28;20472;-85
2023/12/04 09:10:45;;;;;;;13.17;6.40;;;-0.60;99.90;;;;;;5094706;28;20027;-83
2023/12/04 09:13:11;;;;;;;10.37;5.63;;;-0.60;99.90;;;;;;5095376;28;20414;-84
2023/12/04 09:15:36;;;;;;;12.40;6.10;;;-0.60;99.90;;;;;;5094605;28;20024;-83
2023/12/04 09:18:02;;;;;;;10.83;5.40;;;-0.60;99.90;;;;;;5095130;28;20075;-85
2023/12/04 09:20:28;;;;;;;12.00;6.23;;;-0.40;99.90;;;;;;5095175;28;20027;-85
2023/12/04 09:22:53;;;;;;;12.97;6.57;;;-0.50;99.90;;;;;;5093959;28;20024;-83
2023/12/04 09:25:19;;;;;;;15.77;6.90;;;-0.50;99.90;;;;;;5094706;28;20118;-84
2023/12/04 09:27:45;;;;;;;19.17;7.33;;;-0.50;99.90;;;;;;5094111;28;20024;-83
2023/12/04 09:30:11;;;;;;;17.87;7.87;;;-0.50;99.90;;;;;;5095790;28;20072;-83
2023/12/04 09:32:36;;;;;;;14.93;6.73;;;-0.60;99.90;;;;;;5095255;28;20028;-81
2023/12/04 09:35:02;;;;;;;18.63;8.50;;;-0.50;99.90;;;;;;5094881;28;20088;-84
2023/12/04 09:37:27;;;;;;;14.30;7.33;;;-0.50;99.90;;;;;;5094885;28;20023;-84
2023/12/04 09:39:53;;;;;;;12.90;6.83;;;-0.60;99.90;;;;;;5093934;28;20044;-80
2023/12/04 09:42:19;;;;;;;15.80;7.50;;;-0.50;99.90;;;;;;5092148;28;20101;-83
2023/12/04 09:44:48;;;;;;;15.10;6.73;;;-0.50;99.90;;;;;;5105065;28;20024;-88
2023/12/04 09:47:14;;;;;;;15.70;7.23;;;-0.50;99.90;;;;;;5093789;28;20020;-85
2023/12/04 09:49:40;;;;;;;18.00;7.60;;;-0.40;99.90;;;;;;5086821;28;20028;-89
2023/12/04 09:52:06;;;;;;;15.27;7.53;;;-0.30;99.90;;;;;;5079840;28;20498;-89
2023/12/04 09:54:35;;;;;;;12.27;6.37;;;-0.30;99.90;;;;;;5094066;28;20020;-93
2023/12/04 09:57:01;;;;;;;13.60;6.40;;;-0.40;99.90;;;;;;5080638;28;20021;-90
2023/12/04 09:59:29;;;;;;;12.53;6.30;;;-0.40;99.90;;;;;;5090643;28;20016;-92
2023/12/04 10:01:55;;;;;;;12.60;6.70;;;-0.30;99.90;;;;;;5085736;28;20031;-92
2023/12/04 10:04:22;;;;;;;14.47;6.23;;;-0.30;99.90;;;;;;5083314;28;20020;-90
2023/12/04 10:06:52;;;;;;;13.50;6.23;;;-0.30;99.90;;;;;;5095029;28;20024;-95
2023/12/04 10:09:21;;;;;;;15.23;7.07;;;-0.20;99.90;;;;;;5095868;28;20094;-90
2023/12/04 10:11:58;;;;;;;14.73;7.27;;;-0.30;99.90;;;;;;5077136;28;20028;-91
2023/12/04 10:14:26;;;;;;;16.47;7.73;;;-0.20;99.90;;;;;;5111657;28;20020;-94
2023/12/04 10:16:55;;;;;;;16.23;6.83;;;-0.20;99.90;;;;;;5093509;28;20024;-91
2023/12/04 10:19:25;;;;;;;12.17;5.63;;;-0.10;99.90;;;;;;5077346;28;20488;-88
2023/12/04 10:21:51;;;;;;;11.97;6.27;;;-0.10;99.90;;;;;;5093082;28;20028;-90
2023/12/04 10:24:27;;;;;;;10.93;5.83;;;0.00;99.90;;;;;;5093651;28;20023;-88
2023/12/04 10:26:53;;;;;;;15.63;6.70;;;0.10;99.90;;;;;;5081010;28;20047;-90
2023/12/04 10:29:19;;;;;;;15.10;7.40;;;0.10;99.90;;;;;;5090185;28;20024;-92
2023/12/04 10:31:44;;;;;;;18.90;8.13;;;0.20;99.90;;;;;;5085167;28;20123;-87
2023/12/04 10:34:10;;;;;;;18.10;8.03;;;0.10;99.90;;;;;;5093178;28;20019;-87
2023/12/04 10:36:37;;;;;;;19.20;8.53;;;0.10;99.90;;;;;;5092141;28;20016;-92
2023/12/04 10:39:05;;;;;;;17.80;8.13;;;0.20;99.90;;;;;;5093421;28;20594;-90
2023/12/04 10:41:31;;;;;;;16.97;7.47;;;0.20;99.90;;;;;;5076460;28;20025;-93
2023/12/04 10:43:57;;;;;;;16.27;8.60;;;0.30;99.90;;;;;;5092667;28;20027;-92
2023/12/04 10:46:25;;;;;;;16.53;7.70;;;0.30;99.90;;;;;;5093105;28;20120;-91
2023/12/04 10:48:51;;;;;;;14.87;7.00;;;0.30;99.90;;;;;;5092256;28;20028;-91
2023/12/04 10:51:17;;;;;;;15.67;6.90;;;0.30;99.90;;;;;;5077809;28;20114;-92
2023/12/04 10:53:46;;;;;;;12.10;6.27;;;0.40;99.90;;;;;;5089388;28;20052;-90
2023/12/04 10:56:25;;;;;;;14.80;6.90;;;0.30;99.90;;;;;;5079595;28;20020;-91
2023/12/04 10:58:53;;;;;;;14.03;6.83;;;0.30;99.90;;;;;;5092888;28;20024;-92
2023/12/04 11:01:21;;;;;;;12.17;6.80;;;0.30;99.90;;;;;;5093023;28;20059;-91
2023/12/04 11:03:55;;;;;;;14.43;6.47;;;0.30;99.90;;;;;;5092458;28;20020;-93
2023/12/04 11:06:21;;;;;;;14.67;6.30;;;0.30;99.90;;;;;;5085539;28;20423;-92
2023/12/04 11:08:50;;;;;;;15.07;6.23;;;0.30;99.90;;;;;;5084305;28;20027;-92
2023/12/04 11:11:22;;;;;;;12.87;6.07;;;0.40;99.90;;;;;;5078075;28;20028;-89
2023/12/04 11:13:49;;;;;;;;;;;0.40;99.90;;;;;;5089758;28;20016;-90
2023/12/04 11:16:24;;;;;;;9.40;5.40;;;0.40;99.90;;;;;;5092656;28;19900;-90
2023/12/04 11:19:01;;;;;;;13.63;6.07;;;0.40;99.90;;;;;;5080561;28;20057;-91
2023/12/04 11:21:29;;;;;;;10.33;6.13;;;0.50;99.90;;;;;;5089359;28;20028;-91
2023/12/04 11:23:55;;;;;;;10.67;5.77;;;0.50;99.90;;;;;;5092463;28;20207;-92
2023/12/04 11:26:22;;;;;;;9.27;5.10;;;0.50;99.90;;;;;;5084657;28;20017;-92
2023/12/04 11:28:49;;;;;;;11.37;5.90;;;0.50;99.90;;;;;;5083406;28;20024;-93
2023/12/04 11:31:15;;;;;;;14.13;4.70;;;0.50;99.90;;;;;;5077584;28;20023;-95
2023/12/04 11:33:41;;;;;;;11.17;5.57;;;0.50;99.90;;;;;;5089262;28;20020;-90
2023/12/04 11:36:09;;;;;;;12.17;5.60;;;0.40;99.90;;;;;;5078394;28;20367;-92
2023/12/04 11:38:36;;;;;;;11.33;6.20;;;0.50;99.90;;;;;;5086273;28;20027;-88
2023/12/04 11:41:30;;;;;;;14.10;6.33;;;0.50;99.90;;;;;;5079099;28;20029;-94
2023/12/04 11:43:56;;;;;;;11.00;6.03;;;0.50;99.90;;;;;;5089515;28;20093;-96
2023/12/04 11:46:23;;;;;;;11.03;5.70;;;0.50;99.90;;;;;;5092938;28;20016;-90
2023/12/04 11:49:31;;;;;;;12.70;6.00;;;0.60;99.90;;;;;;5086962;28;20123;-90
2023/12/04 11:52:01;;;;;;;16.43;6.60;;;0.70;99.90;;;;;;5080201;28;20024;-95
2023/12/04 11:54:28;;;;;;;16.90;6.77;;;0.60;99.90;;;;;;5097664;28;20510;-95
2023/12/04 11:56:59;;;;;;;15.93;6.10;;;0.60;99.90;;;;;;5095627;28;20081;-86
2023/12/04 11:59:24;;;;;;;15.37;7.83;;;0.70;99.90;;;;;;5078979;28;20496;-87
2023/12/04 12:01:53;;;;;;;15.33;5.97;;;0.70;99.90;;;;;;5091783;28;20020;-90
2023/12/04 12:04:20;;;;;;;11.20;6.17;;;0.80;99.90;;;;;;5083226;28;20028;-87
2023/12/04 12:06:45;;;;;;;11.73;6.30;;;0.90;99.90;;;;;;5084023;28;20079;-88
2023/12/04 12:09:11;;;;;;;14.17;6.43;;;0.90;99.90;;;;;;5090728;28;20448;-86
2023/12/04 12:11:37;;;;;;;14.40;6.17;;;0.90;99.90;;;;;;5078547;28;20041;-86
2023/12/04 12:14:04;;;;;;;14.27;6.33;;;0.90;99.90;;;;;;5095619;28;20017;-87
2023/12/04 12:16:31;;;;;;;15.33;6.80;;;0.90;99.90;;;;;;5095492;28;20016;-91
2023/12/04 12:18:57;;;;;;;13.43;6.63;;;0.80;99.90;;;;;;5094770;28;20073;-90
2023/12/04 12:21:22;;;;;;;15.57;7.00;;;0.90;99.90;;;;;;5095735;28;20040;-87
2023/12/04 12:23:48;;;;;;;14.57;6.67;;;0.90;99.90;;;;;;5095274;28;20046;-88
2023/12/04 12:26:14;;;;;;;37.30;14.67;;;0.90;99.90;;;;;;5088752;28;20021;-87
2023/12/04 12:28:39;;;;;;;17.20;8.60;;;0.90;99.90;;;;;;5085186;28;20156;-87
2023/12/04 12:31:05;;;;;;;13.90;7.17;;;0.90;99.90;;;;;;5081157;28;20016;-87
2023/12/04 12:33:31;;;;;;;15.03;7.60;;;1.00;99.90;;;;;;5093522;28;20133;-84